Time,TemperatureF,DewpointF,PressureIn,WindDirection,WindDirectionDegrees,WindSpeedMPH,WindSpeedGustMPH,Humidity,HourlyPrecipIn,Conditions,Clouds,dailyrainin,SolarRadiationWatts/m^2,SoftwareType,DateUTC
2013-01-29 00:01:00,16.0,14.0,-100.00,East,79,0.0,5.0,91,0.00,,,0.00,0.000000,,2013-01-29 07:01:00,
2013-01-29 00:11:00,16.0,14.0,-100.00,East,79,0.0,5.0,91,0.00,,,0.00,0.000000,,2013-01-29 07:11:00,
2013-01-29 00:21:00,16.0,14.0,-100.00,East,79,0.0,5.0,91,0.00,,,0.00,0.000000,,2013-01-29 07:21:00,
2013-01-29 00:42:00,16.0,14.0,-100.00,NNE,20,0.0,3.0,91,0.00,,,0.00,0.000000,,2013-01-29 07:42:00,
2013-01-29 00:52:00,16.0,14.0,-100.00,NNE,20,0.0,3.0,91,0.00,,,0.00,0.000000,,2013-01-29 07:52:00,
2013-01-29 01:01:00,16.0,14.0,-100.00,NNE,20,0.0,3.0,91,0.00,,,0.00,0.000000,,2013-01-29 08:01:00,
2013-01-29 01:11:00,16.0,14.0,-100.00,NNE,20,0.0,3.0,91,0.00,,,0.00,0.000000,,2013-01-29 08:11:00,
2013-01-29 01:21:00,16.0,14.0,-100.00,NNE,20,0.0,3.0,91,0.00,,,0.00,0.000000,,2013-01-29 08:21:00,
2013-01-29 01:42:00,17.0,15.0,-100.00,NE,38,0.0,3.0,92,0.00,,,0.00,0.000000,,2013-01-29 08:42:00,
2013-01-29 01:52:00,17.0,15.0,-100.00,NE,38,0.0,3.0,92,0.00,,,0.00,0.000000,,2013-01-29 08:52:00,
2013-01-29 02:01:00,17.0,15.0,-100.00,NE,38,0.0,3.0,92,0.00,,,0.00,0.000000,,2013-01-29 09:01:00,
2013-01-29 02:11:00,17.0,15.0,-100.00,NE,38,0.0,3.0,92,0.00,,,0.00,0.000000,,2013-01-29 09:11:00,
2013-01-29 02:21:00,17.0,15.0,-100.00,NE,38,0.0,3.0,92,0.00,,,0.00,0.000000,,2013-01-29 09:21:00,
2013-01-29 02:42:00,17.0,15.0,-100.00,NE,38,0.0,3.0,92,0.00,,,0.00,0.000000,,2013-01-29 09:42:00,
2013-01-29 02:52:00,17.0,15.0,-100.00,NE,38,0.0,3.0,92,0.00,,,0.00,0.000000,,2013-01-29 09:52:00,
2013-01-29 03:01:00,17.0,15.0,-100.00,NE,38,0.0,3.0,92,0.00,,,0.00,0.000000,,2013-01-29 10:01:00,
2013-01-29 03:11:00,17.0,15.0,-100.00,NE,38,0.0,3.0,92,0.00,,,0.00,0.000000,,2013-01-29 10:11:00,
2013-01-29 03:21:00,17.0,15.0,-100.00,NE,38,0.0,3.0,92,0.00,,,0.00,0.000000,,2013-01-29 10:21:00,
2013-01-29 03:42:00,18.0,16.0,-100.00,SW,215,1.0,4.0,93,0.00,,,0.00,0.000000,,2013-01-29 10:42:00,
2013-01-29 03:52:00,18.0,16.0,-100.00,SW,215,1.0,4.0,93,0.00,,,0.00,0.000000,,2013-01-29 10:52:00,
2013-01-29 04:01:00,18.0,16.0,-100.00,SW,215,1.0,4.0,93,0.00,,,0.00,0.000000,,2013-01-29 11:01:00,
2013-01-29 04:11:00,18.0,16.0,-100.00,SW,215,1.0,4.0,93,0.00,,,0.00,0.000000,,2013-01-29 11:11:00,
2013-01-29 04:21:00,18.0,16.0,-100.00,SW,215,1.0,4.0,93,0.00,,,0.00,0.000000,,2013-01-29 11:21:00,
2013-01-29 04:42:00,17.0,15.0,-100.00,SSW,196,0.0,7.0,92,0.00,,,0.00,0.000000,,2013-01-29 11:42:00,
2013-01-29 04:52:00,17.0,15.0,-100.00,SSW,196,0.0,7.0,92,0.00,,,0.00,0.000000,,2013-01-29 11:52:00,
2013-01-29 05:02:00,17.0,15.0,-100.00,SSW,196,0.0,7.0,92,0.00,,,0.00,0.000000,,2013-01-29 12:02:00,
2013-01-29 05:12:00,17.0,15.0,-100.00,SSW,196,0.0,7.0,92,0.00,,,0.00,0.000000,,2013-01-29 12:12:00,
2013-01-29 05:21:00,17.0,15.0,-100.00,SSW,196,0.0,7.0,92,0.00,,,0.00,0.000000,,2013-01-29 12:21:00,
2013-01-29 05:43:00,17.0,15.0,-100.00,West,262,0.0,2.0,92,0.00,,,0.00,0.000000,,2013-01-29 12:43:00,
2013-01-29 05:52:00,17.0,15.0,-100.00,West,262,0.0,2.0,92,0.00,,,0.00,0.000000,,2013-01-29 12:52:00,
2013-01-29 06:01:00,17.0,15.0,-100.00,West,262,0.0,2.0,92,0.00,,,0.00,0.000000,,2013-01-29 13:01:00,
2013-01-29 06:11:00,17.0,15.0,-100.00,West,262,0.0,2.0,92,0.00,,,0.00,0.000000,,2013-01-29 13:11:00,
2013-01-29 06:22:00,17.0,15.0,-100.00,West,262,0.0,2.0,92,0.00,,,0.00,0.000000,,2013-01-29 13:22:00,
2013-01-29 06:43:00,16.0,14.0,-100.00,WSW,241,0.0,6.0,91,0.00,,,0.00,0.000000,,2013-01-29 13:43:00,
2013-01-29 06:52:00,16.0,14.0,-100.00,WSW,241,0.0,6.0,91,0.00,,,0.00,0.000000,,2013-01-29 13:52:00,
2013-01-29 07:02:00,16.0,14.0,-100.00,WSW,241,0.0,6.0,91,0.00,,,0.00,0.000000,,2013-01-29 14:02:00,
2013-01-29 07:12:00,16.0,14.0,-100.00,WSW,241,0.0,6.0,91,0.00,,,0.00,0.000000,,2013-01-29 14:12:00,
2013-01-29 07:21:00,16.0,14.0,-100.00,WSW,241,0.0,6.0,91,0.00,,,0.00,0.000000,,2013-01-29 14:21:00,
2013-01-29 07:43:00,16.0,14.0,-100.00,SW,219,0.0,3.0,91,0.00,,,0.00,0.000000,,2013-01-29 14:43:00,
2013-01-29 07:52:00,16.0,14.0,-100.00,SW,219,0.0,3.0,91,0.00,,,0.00,0.000000,,2013-01-29 14:52:00,
2013-01-29 08:02:00,16.0,14.0,-100.00,SW,219,0.0,3.0,91,0.00,,,0.00,0.000000,,2013-01-29 15:02:00,
2013-01-29 08:11:00,16.0,14.0,-100.00,SW,219,0.0,3.0,91,0.00,,,0.00,0.000000,,2013-01-29 15:11:00,
2013-01-29 08:21:00,16.0,14.0,-100.00,SW,219,0.0,3.0,91,0.00,,,0.00,0.000000,,2013-01-29 15:21:00,
2013-01-29 08:43:00,15.0,13.0,-100.00,SSE,166,0.0,4.0,91,0.00,,,0.00,4.000000,,2013-01-29 15:43:00,
2013-01-29 08:53:00,15.0,13.0,-100.00,SSE,166,0.0,4.0,91,0.00,,,0.00,4.000000,,2013-01-29 15:53:00,
2013-01-29 09:02:00,15.0,13.0,-100.00,SSE,166,0.0,4.0,91,0.00,,,0.00,4.000000,,2013-01-29 16:02:00,
2013-01-29 09:12:00,15.0,13.0,-100.00,SSE,166,0.0,4.0,91,0.00,,,0.00,4.000000,,2013-01-29 16:12:00,
2013-01-29 09:21:00,15.0,13.0,-100.00,SSE,166,0.0,4.0,91,0.00,,,0.00,4.000000,,2013-01-29 16:21:00,
2013-01-29 09:43:00,19.0,17.0,-100.00,East,87,0.0,0.0,91,0.00,,,0.00,52.000000,,2013-01-29 16:43:00,
2013-01-29 09:53:00,19.0,17.0,-100.00,East,87,0.0,0.0,91,0.00,,,0.00,52.000000,,2013-01-29 16:53:00,
2013-01-29 10:02:00,19.0,17.0,-100.00,East,87,0.0,0.0,91,0.00,,,0.00,52.000000,,2013-01-29 17:02:00,
2013-01-29 10:12:00,19.0,17.0,-100.00,East,87,0.0,0.0,91,0.00,,,0.00,52.000000,,2013-01-29 17:12:00,
2013-01-29 10:21:00,19.0,17.0,-100.00,East,87,0.0,0.0,91,0.00,,,0.00,52.000000,,2013-01-29 17:21:00,
2013-01-29 10:42:00,23.0,21.0,-100.00,NE,36,0.0,4.0,92,0.00,,,0.00,119.000000,,2013-01-29 17:42:00,
2013-01-29 10:52:00,23.0,21.0,-100.00,NE,36,0.0,4.0,92,0.00,,,0.00,119.000000,,2013-01-29 17:52:00,
2013-01-29 11:12:00,23.0,21.0,-100.00,NE,36,0.0,4.0,92,0.00,,,0.00,119.000000,,2013-01-29 18:12:00,
2013-01-29 11:21:00,23.0,21.0,-100.00,NE,36,0.0,4.0,92,0.00,,,0.00,119.000000,,2013-01-29 18:21:00,
2013-01-29 11:42:00,24.0,20.0,-100.00,NW,323,0.0,6.0,84,0.00,,,0.00,179.000000,,2013-01-29 18:42:00,
2013-01-29 11:52:00,24.0,20.0,-100.00,NW,323,0.0,6.0,84,0.00,,,0.00,179.000000,,2013-01-29 18:52:00,
2013-01-29 12:02:00,24.0,20.0,-100.00,NW,323,0.0,6.0,84,0.00,,,0.00,179.000000,,2013-01-29 19:02:00,
2013-01-29 12:11:00,24.0,20.0,-100.00,NW,323,0.0,6.0,84,0.00,,,0.00,179.000000,,2013-01-29 19:11:00,
2013-01-29 12:22:00,24.0,20.0,-100.00,NW,323,0.0,6.0,84,0.00,,,0.00,179.000000,,2013-01-29 19:22:00,
2013-01-29 12:42:00,31.0,19.0,-100.00,WSW,241,0.0,4.0,61,0.00,,,0.00,280.000000,,2013-01-29 19:42:00,
2013-01-29 12:52:00,31.0,19.0,-100.00,WSW,241,0.0,4.0,61,0.00,,,0.00,280.000000,,2013-01-29 19:52:00,
2013-01-29 13:42:00,28.0,17.0,-100.00,SSE,165,1.0,4.0,63,-99.99,,,0.00,378.000000,,2013-01-29 20:42:00,
2013-01-29 13:53:00,28.0,17.0,-100.00,SSE,165,1.0,4.0,63,-99.99,,,0.00,378.000000,,2013-01-29 20:53:00,
2013-01-29 14:02:00,28.0,17.0,-100.00,SSE,165,1.0,4.0,63,-99.99,,,0.00,378.000000,,2013-01-29 21:02:00,
2013-01-29 14:12:00,28.0,17.0,-100.00,SSE,165,1.0,4.0,63,-99.99,,,0.00,378.000000,,2013-01-29 21:12:00,
2013-01-29 14:21:00,28.0,17.0,-100.00,SSE,165,1.0,4.0,63,-99.99,,,0.00,378.000000,,2013-01-29 21:21:00,
2013-01-29 14:42:00,29.0,19.0,-100.00,SSE,167,0.0,5.0,66,0.00,,,0.00,420.000000,,2013-01-29 21:42:00,
2013-01-29 14:53:00,29.0,19.0,-100.00,SSE,167,0.0,5.0,66,0.00,,,0.00,420.000000,,2013-01-29 21:53:00,
2013-01-29 15:12:00,29.0,19.0,-100.00,SSE,167,0.0,5.0,66,0.00,,,0.00,420.000000,,2013-01-29 22:12:00,
2013-01-29 15:21:00,29.0,19.0,-100.00,SSE,167,0.0,5.0,66,0.00,,,0.00,420.000000,,2013-01-29 22:21:00,
2013-01-29 15:42:00,26.0,19.0,-100.00,SE,137,0.0,4.0,73,-99.99,,,0.00,294.000000,,2013-01-29 22:42:00,
2013-01-29 15:53:00,26.0,19.0,-100.00,SE,137,0.0,4.0,73,-99.99,,,0.00,294.000000,,2013-01-29 22:53:00,
2013-01-29 16:02:00,26.0,19.0,-100.00,SE,137,0.0,4.0,73,-99.99,,,0.00,294.000000,,2013-01-29 23:02:00,
2013-01-29 16:11:00,26.0,19.0,-100.00,SE,137,0.0,4.0,73,-99.99,,,0.00,294.000000,,2013-01-29 23:11:00,
2013-01-29 16:21:00,26.0,19.0,-100.00,SE,137,0.0,4.0,73,-99.99,,,0.00,294.000000,,2013-01-29 23:21:00,
2013-01-29 16:42:00,25.0,17.0,-100.00,SW,235,0.0,2.0,71,0.00,,,0.00,220.000000,,2013-01-29 23:42:00,
2013-01-29 16:53:00,25.0,17.0,-100.00,SW,235,0.0,2.0,71,0.00,,,0.00,220.000000,,2013-01-29 23:53:00,
2013-01-29 17:02:00,25.0,17.0,-100.00,SW,235,0.0,2.0,71,0.00,,,0.00,220.000000,,2013-01-30 00:02:00,
2013-01-29 17:11:00,25.0,17.0,-100.00,SW,235,0.0,2.0,71,0.00,,,0.00,220.000000,,2013-01-30 00:11:00,
2013-01-29 17:21:00,25.0,17.0,-100.00,SW,235,0.0,2.0,71,0.00,,,0.00,220.000000,,2013-01-30 00:21:00,
2013-01-29 17:43:00,16.0,12.0,-100.00,SW,235,0.0,5.0,83,0.00,,,0.00,53.000000,,2013-01-30 00:43:00,
2013-01-29 17:53:00,16.0,12.0,-100.00,SW,235,0.0,5.0,83,0.00,,,0.00,53.000000,,2013-01-30 00:53:00,
2013-01-29 18:01:00,16.0,12.0,-100.00,SW,235,0.0,5.0,83,0.00,,,0.00,53.000000,,2013-01-30 01:01:00,
2013-01-29 18:11:00,16.0,12.0,-100.00,SW,235,0.0,5.0,83,0.00,,,0.00,53.000000,,2013-01-30 01:11:00,
2013-01-29 18:22:00,16.0,12.0,-100.00,SW,235,0.0,5.0,83,0.00,,,0.00,53.000000,,2013-01-30 01:22:00,
2013-01-29 18:43:00,12.0,9.0,-100.00,SSW,212,0.0,3.0,89,0.00,,,0.00,2.000000,,2013-01-30 01:43:00,
2013-01-29 18:52:00,12.0,9.0,-100.00,SSW,212,0.0,3.0,89,0.00,,,0.00,2.000000,,2013-01-30 01:52:00,
2013-01-29 19:02:00,12.0,9.0,-100.00,SSW,212,0.0,3.0,89,0.00,,,0.00,2.000000,,2013-01-30 02:02:00,
2013-01-29 19:12:00,12.0,9.0,-100.00,SSW,212,0.0,3.0,89,0.00,,,0.00,2.000000,,2013-01-30 02:12:00,
2013-01-29 19:21:00,12.0,9.0,-100.00,SSW,212,0.0,3.0,89,0.00,,,0.00,2.000000,,2013-01-30 02:21:00,
2013-01-29 19:42:00,13.0,11.0,-100.00,NNE,33,0.0,0.0,92,0.00,,,0.00,0.000000,,2013-01-30 02:42:00,
2013-01-29 19:53:00,13.0,11.0,-100.00,NNE,33,0.0,0.0,92,0.00,,,0.00,0.000000,,2013-01-30 02:53:00,
2013-01-29 20:02:00,13.0,11.0,-100.00,NNE,33,0.0,0.0,92,0.00,,,0.00,0.000000,,2013-01-30 03:02:00,
2013-01-29 20:11:00,13.0,11.0,-100.00,NNE,33,0.0,0.0,92,0.00,,,0.00,0.000000,,2013-01-30 03:11:00,
2013-01-29 20:21:00,13.0,11.0,-100.00,NNE,33,0.0,0.0,92,0.00,,,0.00,0.000000,,2013-01-30 03:21:00,
2013-01-29 20:42:00,14.0,12.0,-100.00,East,93,0.0,0.0,92,0.00,,,0.00,0.000000,,2013-01-30 03:42:00,
2013-01-29 20:52:00,14.0,12.0,-100.00,East,93,0.0,0.0,92,0.00,,,0.00,0.000000,,2013-01-30 03:52:00,
2013-01-29 21:02:00,14.0,12.0,-100.00,East,93,0.0,0.0,92,0.00,,,0.00,0.000000,,2013-01-30 04:02:00,
2013-01-29 21:11:00,14.0,12.0,-100.00,East,93,0.0,0.0,92,0.00,,,0.00,0.000000,,2013-01-30 04:11:00,
2013-01-29 21:21:00,14.0,12.0,-100.00,East,93,0.0,0.0,92,0.00,,,0.00,0.000000,,2013-01-30 04:21:00,
2013-01-29 21:42:00,16.0,14.0,-100.00,ESE,109,0.0,3.0,93,0.00,,,0.00,0.000000,,2013-01-30 04:42:00,
2013-01-29 21:52:00,16.0,14.0,-100.00,ESE,109,0.0,3.0,93,0.00,,,0.00,0.000000,,2013-01-30 04:52:00,
2013-01-29 22:03:00,16.0,14.0,-100.00,ESE,109,0.0,3.0,93,0.00,,,0.00,0.000000,,2013-01-30 05:03:00,
2013-01-29 22:11:00,16.0,14.0,-100.00,ESE,109,0.0,3.0,93,0.00,,,0.00,0.000000,,2013-01-30 05:11:00,
2013-01-29 22:21:00,16.0,14.0,-100.00,ESE,109,0.0,3.0,93,0.00,,,0.00,0.000000,,2013-01-30 05:21:00,
2013-01-29 22:43:00,16.0,14.0,-100.00,ENE,62,0.0,0.0,93,0.00,,,0.00,0.000000,,2013-01-30 05:43:00,
2013-01-29 22:52:00,16.0,14.0,-100.00,ENE,62,0.0,0.0,93,0.00,,,0.00,0.000000,,2013-01-30 05:52:00,
2013-01-29 23:02:00,16.0,14.0,-100.00,ENE,62,0.0,0.0,93,0.00,,,0.00,0.000000,,2013-01-30 06:02:00,
2013-01-29 23:11:00,16.0,14.0,-100.00,ENE,62,0.0,0.0,93,0.00,,,0.00,0.000000,,2013-01-30 06:11:00,
2013-01-29 23:21:00,16.0,14.0,-100.00,ENE,62,0.0,0.0,93,0.00,,,0.00,0.000000,,2013-01-30 06:21:00,
2013-01-29 23:42:00,16.0,14.0,-100.00,NE,54,0.0,0.0,93,0.00,,,0.00,0.000000,,2013-01-30 06:42:00,
2013-01-29 23:52:00,16.0,14.0,-100.00,NE,54,0.0,0.0,93,0.00,,,0.00,0.000000,,2013-01-30 06:52:00,